sensor_id;sensor_type;location;lat;lon;timestamp;temperature;humidity
6672;DHT22;3372;48.690;12.362;2022-12-29T00:00:05;6.20;42.30
6672;DHT22;3372;48.690;12.362;2022-12-29T00:02:31;6.20;42.30
6672;DHT22;3372;48.690;12.362;2022-12-29T00:04:56;6.20;42.70
6672;DHT22;3372;48.690;12.362;2022-12-29T00:07:22;6.00;42.30
6672;DHT22;3372;48.690;12.362;2022-12-29T00:09:51;6.20;42.30
6672;DHT22;3372;48.690;12.362;2022-12-29T00:12:16;6.50;42.20
6672;DHT22;3372;48.690;12.362;2022-12-29T00:14:42;6.30;42.20
6672;DHT22;3372;48.690;12.362;2022-12-29T00:17:26;6.30;41.70
6672;DHT22;3372;48.690;12.362;2022-12-29T00:19:51;6.40;41.20
6672;DHT22;3372;48.690;12.362;2022-12-29T00:22:35;6.50;41.70
6672;DHT22;3372;48.690;12.362;2022-12-29T00:25:19;6.40;41.80
6672;DHT22;3372;48.690;12.362;2022-12-29T00:28:08;6.30;41.60
6672;DHT22;3372;48.690;12.362;2022-12-29T00:30:52;6.30;41.70
6672;DHT22;3372;48.690;12.362;2022-12-29T00:33:36;6.20;41.60
6672;DHT22;3372;48.690;12.362;2022-12-29T00:36:24;6.10;41.60
6672;DHT22;3372;48.690;12.362;2022-12-29T00:38:55;6.40;42.40
6672;DHT22;3372;48.690;12.362;2022-12-29T00:41:40;6.30;42.40
6672;DHT22;3372;48.690;12.362;2022-12-29T00:44:24;6.50;41.90
6672;DHT22;3372;48.690;12.362;2022-12-29T00:46:50;6.40;42.20
6672;DHT22;3372;48.690;12.362;2022-12-29T00:49:15;6.10;41.80
6672;DHT22;3372;48.690;12.362;2022-12-29T00:52:07;6.20;41.60
6672;DHT22;3372;48.690;12.362;2022-12-29T00:54:36;6.20;41.80
6672;DHT22;3372;48.690;12.362;2022-12-29T00:57:03;6.40;41.70
6672;DHT22;3372;48.690;12.362;2022-12-29T00:59:29;6.40;41.50
6672;DHT22;3372;48.690;12.362;2022-12-29T01:01:55;6.20;41.60
6672;DHT22;3372;48.690;12.362;2022-12-29T01:04:22;6.30;41.20
6672;DHT22;3372;48.690;12.362;2022-12-29T01:06:48;6.40;40.50
6672;DHT22;3372;48.690;12.362;2022-12-29T01:09:15;6.40;41.10
6672;DHT22;3372;48.690;12.362;2022-12-29T01:11:59;6.30;41.50
6672;DHT22;3372;48.690;12.362;2022-12-29T01:14:26;6.40;41.30
6672;DHT22;3372;48.690;12.362;2022-12-29T01:16:52;6.50;41.80
6672;DHT22;3372;48.690;12.362;2022-12-29T01:19:18;6.20;41.20
6672;DHT22;3372;48.690;12.362;2022-12-29T01:21:44;6.50;41.50
6672;DHT22;3372;48.690;12.362;2022-12-29T01:24:10;6.30;41.20
6672;DHT22;3372;48.690;12.362;2022-12-29T01:26:35;6.50;41.70
6672;DHT22;3372;48.690;12.362;2022-12-29T01:29:01;6.20;41.50
6672;DHT22;3372;48.690;12.362;2022-12-29T01:31:26;6.10;41.60
6672;DHT22;3372;48.690;12.362;2022-12-29T01:33:52;6.20;40.90
6672;DHT22;3372;48.690;12.362;2022-12-29T01:36:18;6.30;42.20
6672;DHT22;3372;48.690;12.362;2022-12-29T01:38:44;6.20;41.20
6672;DHT22;3372;48.690;12.362;2022-12-29T01:41:12;6.10;41.00
6672;DHT22;3372;48.690;12.362;2022-12-29T01:43:39;6.10;41.20
6672;DHT22;3372;48.690;12.362;2022-12-29T01:46:12;6.40;41.70
6672;DHT22;3372;48.690;12.362;2022-12-29T01:48:40;6.20;41.60
6672;DHT22;3372;48.690;12.362;2022-12-29T01:51:06;6.20;41.30
6672;DHT22;3372;48.690;12.362;2022-12-29T01:53:33;6.10;41.40
6672;DHT22;3372;48.690;12.362;2022-12-29T01:56:03;6.10;41.10
6672;DHT22;3372;48.690;12.362;2022-12-29T01:58:34;5.90;41.40
6672;DHT22;3372;48.690;12.362;2022-12-29T02:01:01;6.00;41.80
6672;DHT22;3372;48.690;12.362;2022-12-29T02:03:28;6.10;41.90
6672;DHT22;3372;48.690;12.362;2022-12-29T02:06:09;6.10;42.30
6672;DHT22;3372;48.690;12.362;2022-12-29T02:08:38;5.90;41.50
6672;DHT22;3372;48.690;12.362;2022-12-29T02:11:05;5.90;41.80
6672;DHT22;3372;48.690;12.362;2022-12-29T02:13:31;6.00;41.80
6672;DHT22;3372;48.690;12.362;2022-12-29T02:16:06;6.00;41.70
6672;DHT22;3372;48.690;12.362;2022-12-29T02:25:00;5.90;41.80
6672;DHT22;3372;48.690;12.362;2022-12-29T02:38:49;5.70;42.00
6672;DHT22;3372;48.690;12.362;2022-12-29T02:43:59;5.80;42.00
6672;DHT22;3372;48.690;12.362;2022-12-29T02:51:47;5.50;42.70
6672;DHT22;3372;48.690;12.362;2022-12-29T02:54:20;5.60;43.50
6672;DHT22;3372;48.690;12.362;2022-12-29T02:59:47;5.80;43.20
6672;DHT22;3372;48.690;12.362;2022-12-29T03:05:43;5.60;43.20
6672;DHT22;3372;48.690;12.362;2022-12-29T03:08:34;5.80;43.60
6672;DHT22;3372;48.690;12.362;2022-12-29T03:11:07;5.30;43.60
6672;DHT22;3372;48.690;12.362;2022-12-29T03:13:56;5.60;43.60
6672;DHT22;3372;48.690;12.362;2022-12-29T03:16:45;5.60;43.40
6672;DHT22;3372;48.690;12.362;2022-12-29T03:19:16;5.60;43.40
6672;DHT22;3372;48.690;12.362;2022-12-29T03:21:57;5.70;43.20
6672;DHT22;3372;48.690;12.362;2022-12-29T03:24:45;5.60;42.90
6672;DHT22;3372;48.690;12.362;2022-12-29T03:27:17;5.60;42.90
6672;DHT22;3372;48.690;12.362;2022-12-29T03:29:47;5.50;42.80
6672;DHT22;3372;48.690;12.362;2022-12-29T03:32:20;5.70;43.50
6672;DHT22;3372;48.690;12.362;2022-12-29T03:34:47;5.80;43.20
6672;DHT22;3372;48.690;12.362;2022-12-29T03:37:17;5.60;42.20
6672;DHT22;3372;48.690;12.362;2022-12-29T03:39:44;5.80;42.90
6672;DHT22;3372;48.690;12.362;2022-12-29T03:42:15;5.80;43.10
6672;DHT22;3372;48.690;12.362;2022-12-29T03:44:43;5.70;43.00
6672;DHT22;3372;48.690;12.362;2022-12-29T03:47:11;5.70;43.00
6672;DHT22;3372;48.690;12.362;2022-12-29T03:49:37;5.80;42.80
6672;DHT22;3372;48.690;12.362;2022-12-29T03:52:03;6.00;43.30
6672;DHT22;3372;48.690;12.362;2022-12-29T03:54:29;5.80;43.20
6672;DHT22;3372;48.690;12.362;2022-12-29T03:56:55;6.20;43.30
6672;DHT22;3372;48.690;12.362;2022-12-29T03:59:20;6.00;41.80
6672;DHT22;3372;48.690;12.362;2022-12-29T04:01:46;6.20;40.90
6672;DHT22;3372;48.690;12.362;2022-12-29T04:04:12;6.20;40.00
6672;DHT22;3372;48.690;12.362;2022-12-29T04:06:37;6.10;38.80
6672;DHT22;3372;48.690;12.362;2022-12-29T04:09:03;6.30;39.40
6672;DHT22;3372;48.690;12.362;2022-12-29T04:11:29;6.20;39.50
6672;DHT22;3372;48.690;12.362;2022-12-29T04:13:55;6.30;39.80
6672;DHT22;3372;48.690;12.362;2022-12-29T04:16:20;6.40;39.70
6672;DHT22;3372;48.690;12.362;2022-12-29T04:18:46;6.50;39.50
6672;DHT22;3372;48.690;12.362;2022-12-29T04:21:11;6.30;40.30
6672;DHT22;3372;48.690;12.362;2022-12-29T04:23:38;6.20;40.30
6672;DHT22;3372;48.690;12.362;2022-12-29T04:26:04;6.20;40.30
6672;DHT22;3372;48.690;12.362;2022-12-29T04:28:32;6.30;39.90
6672;DHT22;3372;48.690;12.362;2022-12-29T04:30:58;6.30;40.40
6672;DHT22;3372;48.690;12.362;2022-12-29T04:33:23;6.30;40.60
6672;DHT22;3372;48.690;12.362;2022-12-29T04:35:49;6.30;41.20
6672;DHT22;3372;48.690;12.362;2022-12-29T04:38:15;6.40;39.90
6672;DHT22;3372;48.690;12.362;2022-12-29T04:40:42;6.40;39.40
6672;DHT22;3372;48.690;12.362;2022-12-29T04:43:09;6.40;38.70
6672;DHT22;3372;48.690;12.362;2022-12-29T04:45:35;6.60;38.60
6672;DHT22;3372;48.690;12.362;2022-12-29T04:48:01;6.30;37.90
6672;DHT22;3372;48.690;12.362;2022-12-29T04:50:26;6.50;38.50
6672;DHT22;3372;48.690;12.362;2022-12-29T04:52:52;6.50;37.50
6672;DHT22;3372;48.690;12.362;2022-12-29T04:55:17;6.70;37.80
6672;DHT22;3372;48.690;12.362;2022-12-29T04:57:43;6.60;37.90
6672;DHT22;3372;48.690;12.362;2022-12-29T05:00:09;6.50;39.10
6672;DHT22;3372;48.690;12.362;2022-12-29T05:02:36;6.60;39.90
6672;DHT22;3372;48.690;12.362;2022-12-29T05:05:01;6.50;40.10
6672;DHT22;3372;48.690;12.362;2022-12-29T05:07:27;6.40;40.10
6672;DHT22;3372;48.690;12.362;2022-12-29T05:09:52;6.50;39.40
6672;DHT22;3372;48.690;12.362;2022-12-29T05:12:18;6.40;38.60
6672;DHT22;3372;48.690;12.362;2022-12-29T05:14:44;6.60;38.80
6672;DHT22;3372;48.690;12.362;2022-12-29T05:17:09;6.80;38.10
6672;DHT22;3372;48.690;12.362;2022-12-29T05:19:35;6.60;37.40
6672;DHT22;3372;48.690;12.362;2022-12-29T05:22:00;6.60;37.30
6672;DHT22;3372;48.690;12.362;2022-12-29T05:24:26;6.80;36.90
6672;DHT22;3372;48.690;12.362;2022-12-29T05:26:52;6.70;37.30
6672;DHT22;3372;48.690;12.362;2022-12-29T05:29:17;6.70;38.10
6672;DHT22;3372;48.690;12.362;2022-12-29T05:31:43;6.70;37.60
6672;DHT22;3372;48.690;12.362;2022-12-29T05:34:11;6.90;37.70
6672;DHT22;3372;48.690;12.362;2022-12-29T05:36:36;6.90;38.60
6672;DHT22;3372;48.690;12.362;2022-12-29T05:39:02;6.80;36.90
6672;DHT22;3372;48.690;12.362;2022-12-29T05:41:27;7.00;36.70
6672;DHT22;3372;48.690;12.362;2022-12-29T05:43:53;6.80;36.60
6672;DHT22;3372;48.690;12.362;2022-12-29T05:46:19;7.10;35.40
6672;DHT22;3372;48.690;12.362;2022-12-29T05:48:44;6.90;34.30
6672;DHT22;3372;48.690;12.362;2022-12-29T05:51:10;7.00;34.60
6672;DHT22;3372;48.690;12.362;2022-12-29T05:53:35;7.00;34.90
6672;DHT22;3372;48.690;12.362;2022-12-29T05:56:01;6.90;34.70
6672;DHT22;3372;48.690;12.362;2022-12-29T05:58:26;7.00;33.70
6672;DHT22;3372;48.690;12.362;2022-12-29T06:00:52;7.20;33.90
6672;DHT22;3372;48.690;12.362;2022-12-29T06:03:17;7.10;34.40
6672;DHT22;3372;48.690;12.362;2022-12-29T06:05:47;7.10;33.60
6672;DHT22;3372;48.690;12.362;2022-12-29T06:08:13;7.10;34.80
6672;DHT22;3372;48.690;12.362;2022-12-29T06:10:38;7.10;35.10
6672;DHT22;3372;48.690;12.362;2022-12-29T06:13:04;7.30;34.70
6672;DHT22;3372;48.690;12.362;2022-12-29T06:15:31;7.20;34.00
6672;DHT22;3372;48.690;12.362;2022-12-29T06:17:57;7.10;34.10
6672;DHT22;3372;48.690;12.362;2022-12-29T06:20:23;7.10;35.00
6672;DHT22;3372;48.690;12.362;2022-12-29T06:22:49;7.10;34.80
6672;DHT22;3372;48.690;12.362;2022-12-29T06:25:14;7.10;35.40
6672;DHT22;3372;48.690;12.362;2022-12-29T06:27:40;7.20;34.90
6672;DHT22;3372;48.690;12.362;2022-12-29T06:30:06;7.20;34.30
6672;DHT22;3372;48.690;12.362;2022-12-29T06:32:32;7.20;33.50
6672;DHT22;3372;48.690;12.362;2022-12-29T06:34:59;7.20;35.00
6672;DHT22;3372;48.690;12.362;2022-12-29T06:37:24;7.30;35.00
6672;DHT22;3372;48.690;12.362;2022-12-29T06:39:50;7.20;34.20
6672;DHT22;3372;48.690;12.362;2022-12-29T06:42:15;7.30;33.90
6672;DHT22;3372;48.690;12.362;2022-12-29T06:44:41;7.20;33.00
6672;DHT22;3372;48.690;12.362;2022-12-29T06:47:07;7.30;33.80
6672;DHT22;3372;48.690;12.362;2022-12-29T06:49:32;7.30;34.40
6672;DHT22;3372;48.690;12.362;2022-12-29T06:51:58;7.20;34.30
6672;DHT22;3372;48.690;12.362;2022-12-29T06:54:26;7.30;33.70
6672;DHT22;3372;48.690;12.362;2022-12-29T06:56:51;7.20;34.00
6672;DHT22;3372;48.690;12.362;2022-12-29T06:59:17;6.90;33.70
6672;DHT22;3372;48.690;12.362;2022-12-29T07:01:42;7.10;34.60
6672;DHT22;3372;48.690;12.362;2022-12-29T07:04:08;7.20;35.60
6672;DHT22;3372;48.690;12.362;2022-12-29T07:06:34;7.20;34.70
6672;DHT22;3372;48.690;12.362;2022-12-29T07:08:59;7.30;34.20
6672;DHT22;3372;48.690;12.362;2022-12-29T07:11:25;7.20;35.10
6672;DHT22;3372;48.690;12.362;2022-12-29T07:13:50;7.10;34.70
6672;DHT22;3372;48.690;12.362;2022-12-29T07:16:16;7.20;35.40
6672;DHT22;3372;48.690;12.362;2022-12-29T07:18:42;7.40;35.70
6672;DHT22;3372;48.690;12.362;2022-12-29T07:21:07;7.30;35.60
6672;DHT22;3372;48.690;12.362;2022-12-29T07:23:33;7.40;36.50
6672;DHT22;3372;48.690;12.362;2022-12-29T07:28:26;7.40;36.50
6672;DHT22;3372;48.690;12.362;2022-12-29T07:30:52;7.50;36.80
6672;DHT22;3372;48.690;12.362;2022-12-29T07:33:18;7.50;36.80
6672;DHT22;3372;48.690;12.362;2022-12-29T07:35:43;7.50;37.00
6672;DHT22;3372;48.690;12.362;2022-12-29T07:38:09;7.50;37.80
6672;DHT22;3372;48.690;12.362;2022-12-29T07:40:34;7.50;37.40
6672;DHT22;3372;48.690;12.362;2022-12-29T07:43:00;7.50;37.20
6672;DHT22;3372;48.690;12.362;2022-12-29T07:45:25;7.10;38.20
6672;DHT22;3372;48.690;12.362;2022-12-29T07:47:51;7.60;37.40
6672;DHT22;3372;48.690;12.362;2022-12-29T07:50:17;7.60;37.20
6672;DHT22;3372;48.690;12.362;2022-12-29T07:52:42;7.70;37.30
6672;DHT22;3372;48.690;12.362;2022-12-29T07:55:08;7.80;36.80
6672;DHT22;3372;48.690;12.362;2022-12-29T07:57:34;7.80;35.90
6672;DHT22;3372;48.690;12.362;2022-12-29T08:00:00;7.80;35.80
6672;DHT22;3372;48.690;12.362;2022-12-29T08:02:25;7.90;35.80
6672;DHT22;3372;48.690;12.362;2022-12-29T08:04:55;7.90;34.90
6672;DHT22;3372;48.690;12.362;2022-12-29T08:07:20;8.00;34.20
6672;DHT22;3372;48.690;12.362;2022-12-29T08:09:46;8.00;33.30
6672;DHT22;3372;48.690;12.362;2022-12-29T08:12:12;8.10;31.90
6672;DHT22;3372;48.690;12.362;2022-12-29T08:14:37;8.10;30.90
6672;DHT22;3372;48.690;12.362;2022-12-29T08:17:03;8.10;31.40
6672;DHT22;3372;48.690;12.362;2022-12-29T08:19:29;8.10;31.10
6672;DHT22;3372;48.690;12.362;2022-12-29T08:21:55;8.20;30.70
6672;DHT22;3372;48.690;12.362;2022-12-29T08:24:20;8.30;30.20
6672;DHT22;3372;48.690;12.362;2022-12-29T08:26:46;8.40;29.80
6672;DHT22;3372;48.690;12.362;2022-12-29T08:29:11;8.40;29.50
6672;DHT22;3372;48.690;12.362;2022-12-29T08:31:37;8.50;30.00
6672;DHT22;3372;48.690;12.362;2022-12-29T08:34:03;8.50;29.60
6672;DHT22;3372;48.690;12.362;2022-12-29T08:36:29;8.50;29.50
6672;DHT22;3372;48.690;12.362;2022-12-29T08:38:55;8.60;29.20
6672;DHT22;3372;48.690;12.362;2022-12-29T08:41:21;8.60;29.90
6672;DHT22;3372;48.690;12.362;2022-12-29T08:43:47;8.70;29.60
6672;DHT22;3372;48.690;12.362;2022-12-29T08:46:13;8.70;28.50
6672;DHT22;3372;48.690;12.362;2022-12-29T08:48:38;8.80;28.80
6672;DHT22;3372;48.690;12.362;2022-12-29T08:51:04;8.80;28.80
6672;DHT22;3372;48.690;12.362;2022-12-29T08:53:29;8.90;29.40
6672;DHT22;3372;48.690;12.362;2022-12-29T08:55:57;8.90;28.90
6672;DHT22;3372;48.690;12.362;2022-12-29T08:58:24;9.10;29.10
6672;DHT22;3372;48.690;12.362;2022-12-29T09:00:51;9.30;28.20
6672;DHT22;3372;48.690;12.362;2022-12-29T09:03:17;9.40;28.50
6672;DHT22;3372;48.690;12.362;2022-12-29T09:05:42;9.50;27.50
6672;DHT22;3372;48.690;12.362;2022-12-29T09:08:08;9.60;28.80
6672;DHT22;3372;48.690;12.362;2022-12-29T09:10:33;9.80;28.20
6672;DHT22;3372;48.690;12.362;2022-12-29T09:12:59;9.90;27.80
6672;DHT22;3372;48.690;12.362;2022-12-29T09:15:24;10.00;25.80
6672;DHT22;3372;48.690;12.362;2022-12-29T09:17:50;10.20;26.60
6672;DHT22;3372;48.690;12.362;2022-12-29T09:20:17;10.40;25.10
6672;DHT22;3372;48.690;12.362;2022-12-29T09:22:43;10.40;25.30
6672;DHT22;3372;48.690;12.362;2022-12-29T09:25:09;10.60;26.90
6672;DHT22;3372;48.690;12.362;2022-12-29T09:27:36;10.70;24.90
6672;DHT22;3372;48.690;12.362;2022-12-29T09:30:05;10.80;24.30
6672;DHT22;3372;48.690;12.362;2022-12-29T09:32:32;10.90;23.90
6672;DHT22;3372;48.690;12.362;2022-12-29T09:34:57;11.00;23.40
6672;DHT22;3372;48.690;12.362;2022-12-29T09:37:23;11.10;22.90
6672;DHT22;3372;48.690;12.362;2022-12-29T09:39:48;11.10;23.80
6672;DHT22;3372;48.690;12.362;2022-12-29T09:44:56;11.40;22.60
6672;DHT22;3372;48.690;12.362;2022-12-29T09:47:26;11.40;22.00
6672;DHT22;3372;48.690;12.362;2022-12-29T09:52:29;11.50;21.30
6672;DHT22;3372;48.690;12.362;2022-12-29T09:55:00;11.50;22.10
6672;DHT22;3372;48.690;12.362;2022-12-29T09:57:54;11.40;22.90
6672;DHT22;3372;48.690;12.362;2022-12-29T10:00:23;11.50;21.00
6672;DHT22;3372;48.690;12.362;2022-12-29T10:02:58;11.50;21.90
6672;DHT22;3372;48.690;12.362;2022-12-29T10:13:39;11.90;24.00
6672;DHT22;3372;48.690;12.362;2022-12-29T10:16:20;12.00;22.00
6672;DHT22;3372;48.690;12.362;2022-12-29T10:24:11;11.90;19.20
6672;DHT22;3372;48.690;12.362;2022-12-29T10:26:42;11.90;21.70
6672;DHT22;3372;48.690;12.362;2022-12-29T10:29:28;11.80;20.30
6672;DHT22;3372;48.690;12.362;2022-12-29T10:32:04;11.90;22.10
6672;DHT22;3372;48.690;12.362;2022-12-29T10:34:36;12.00;19.70
6672;DHT22;3372;48.690;12.362;2022-12-29T10:40:02;12.00;19.70
6672;DHT22;3372;48.690;12.362;2022-12-29T10:42:43;11.90;20.80
6672;DHT22;3372;48.690;12.362;2022-12-29T10:45:14;11.80;19.90
6672;DHT22;3372;48.690;12.362;2022-12-29T10:48:03;11.80;22.30
6672;DHT22;3372;48.690;12.362;2022-12-29T10:50:29;11.90;21.30
6672;DHT22;3372;48.690;12.362;2022-12-29T10:52:57;11.90;20.70
6672;DHT22;3372;48.690;12.362;2022-12-29T10:55:32;11.90;20.60
6672;DHT22;3372;48.690;12.362;2022-12-29T10:58:02;12.00;20.70
6672;DHT22;3372;48.690;12.362;2022-12-29T11:00:30;12.00;20.40
6672;DHT22;3372;48.690;12.362;2022-12-29T11:05:55;12.00;20.70
6672;DHT22;3372;48.690;12.362;2022-12-29T11:08:26;11.90;19.60
6672;DHT22;3372;48.690;12.362;2022-12-29T11:11:00;12.00;21.90
6672;DHT22;3372;48.690;12.362;2022-12-29T11:13:31;12.10;21.20
6672;DHT22;3372;48.690;12.362;2022-12-29T11:15:57;12.10;20.90
6672;DHT22;3372;48.690;12.362;2022-12-29T11:18:36;12.10;20.80
6672;DHT22;3372;48.690;12.362;2022-12-29T11:21:23;12.10;20.90
6672;DHT22;3372;48.690;12.362;2022-12-29T11:23:58;12.20;19.90
6672;DHT22;3372;48.690;12.362;2022-12-29T11:26:25;12.30;20.40
6672;DHT22;3372;48.690;12.362;2022-12-29T11:31:43;12.20;20.10
6672;DHT22;3372;48.690;12.362;2022-12-29T11:34:15;12.20;21.30
6672;DHT22;3372;48.690;12.362;2022-12-29T11:36:41;12.30;22.10
6672;DHT22;3372;48.690;12.362;2022-12-29T11:39:26;12.30;21.70
6672;DHT22;3372;48.690;12.362;2022-12-29T11:41:52;12.30;20.60
6672;DHT22;3372;48.690;12.362;2022-12-29T11:44:18;12.40;23.10
6672;DHT22;3372;48.690;12.362;2022-12-29T11:46:47;12.40;22.60
6672;DHT22;3372;48.690;12.362;2022-12-29T11:49:23;12.40;22.20
6672;DHT22;3372;48.690;12.362;2022-12-29T11:51:51;12.50;21.30
6672;DHT22;3372;48.690;12.362;2022-12-29T11:54:30;12.60;22.60
6672;DHT22;3372;48.690;12.362;2022-12-29T11:56:58;12.70;20.20
6672;DHT22;3372;48.690;12.362;2022-12-29T12:01:56;12.70;22.00
6672;DHT22;3372;48.690;12.362;2022-12-29T12:04:30;12.80;21.10
6672;DHT22;3372;48.690;12.362;2022-12-29T12:07:12;12.80;20.30
6672;DHT22;3372;48.690;12.362;2022-12-29T12:09:51;12.70;19.60
6672;DHT22;3372;48.690;12.362;2022-12-29T12:12:28;12.60;20.60
6672;DHT22;3372;48.690;12.362;2022-12-29T12:14:56;12.70;20.30
6672;DHT22;3372;48.690;12.362;2022-12-29T12:17:33;12.70;21.60
6672;DHT22;3372;48.690;12.362;2022-12-29T12:20:19;12.80;20.10
6672;DHT22;3372;48.690;12.362;2022-12-29T12:28:48;12.60;17.40
6672;DHT22;3372;48.690;12.362;2022-12-29T12:31:25;12.60;19.20
6672;DHT22;3372;48.690;12.362;2022-12-29T12:34:05;12.60;18.30
6672;DHT22;3372;48.690;12.362;2022-12-29T12:36:56;12.60;17.80
6672;DHT22;3372;48.690;12.362;2022-12-29T12:51:20;12.60;18.80
6672;DHT22;3372;48.690;12.362;2022-12-29T13:07:27;12.90;18.20
6672;DHT22;3372;48.690;12.362;2022-12-29T13:15:25;12.80;17.10
6672;DHT22;3372;48.690;12.362;2022-12-29T13:20:50;12.80;17.50
6672;DHT22;3372;48.690;12.362;2022-12-29T13:26:22;12.90;19.40
6672;DHT22;3372;48.690;12.362;2022-12-29T13:29:12;12.90;18.30
6672;DHT22;3372;48.690;12.362;2022-12-29T13:34:53;12.90;18.50
6672;DHT22;3372;48.690;12.362;2022-12-29T13:37:25;12.80;18.00
6672;DHT22;3372;48.690;12.362;2022-12-29T13:39:56;13.00;19.10
6672;DHT22;3372;48.690;12.362;2022-12-29T13:42:23;13.00;20.20
6672;DHT22;3372;48.690;12.362;2022-12-29T13:47:28;13.00;18.70
6672;DHT22;3372;48.690;12.362;2022-12-29T13:49:58;13.00;18.80
6672;DHT22;3372;48.690;12.362;2022-12-29T13:55:39;13.10;18.40
6672;DHT22;3372;48.690;12.362;2022-12-29T14:01:29;13.00;19.80
6672;DHT22;3372;48.690;12.362;2022-12-29T14:03:59;13.00;19.70
6672;DHT22;3372;48.690;12.362;2022-12-29T14:06:35;13.00;21.20
6672;DHT22;3372;48.690;12.362;2022-12-29T14:12:21;13.00;19.70
6672;DHT22;3372;48.690;12.362;2022-12-29T14:14:50;13.00;19.80
6672;DHT22;3372;48.690;12.362;2022-12-29T14:17:20;12.90;20.40
6672;DHT22;3372;48.690;12.362;2022-12-29T14:19:46;13.00;20.00
6672;DHT22;3372;48.690;12.362;2022-12-29T14:22:23;13.00;20.00
6672;DHT22;3372;48.690;12.362;2022-12-29T14:24:49;12.90;19.10
6672;DHT22;3372;48.690;12.362;2022-12-29T14:29:42;12.90;20.40
6672;DHT22;3372;48.690;12.362;2022-12-29T14:34:59;12.90;21.10
6672;DHT22;3372;48.690;12.362;2022-12-29T14:37:36;12.80;21.50
6672;DHT22;3372;48.690;12.362;2022-12-29T14:42:43;12.70;20.80
6672;DHT22;3372;48.690;12.362;2022-12-29T14:45:27;12.70;22.20
6672;DHT22;3372;48.690;12.362;2022-12-29T14:47:54;12.70;21.30
6672;DHT22;3372;48.690;12.362;2022-12-29T14:50:43;12.70;21.70
6672;DHT22;3372;48.690;12.362;2022-12-29T14:53:45;12.70;21.40
6672;DHT22;3372;48.690;12.362;2022-12-29T14:56:12;12.70;21.90
6672;DHT22;3372;48.690;12.362;2022-12-29T14:58:58;12.60;23.20
6672;DHT22;3372;48.690;12.362;2022-12-29T15:04:13;12.50;23.80
6672;DHT22;3372;48.690;12.362;2022-12-29T15:06:41;12.50;24.70
6672;DHT22;3372;48.690;12.362;2022-12-29T15:09:35;12.40;24.70
6672;DHT22;3372;48.690;12.362;2022-12-29T15:17:42;12.30;24.70
6672;DHT22;3372;48.690;12.362;2022-12-29T15:20:27;12.30;25.40
6672;DHT22;3372;48.690;12.362;2022-12-29T15:23:09;12.20;24.60
6672;DHT22;3372;48.690;12.362;2022-12-29T15:25:35;12.20;25.40
6672;DHT22;3372;48.690;12.362;2022-12-29T15:28:04;12.10;26.00
6672;DHT22;3372;48.690;12.362;2022-12-29T15:30:30;12.10;26.50
6672;DHT22;3372;48.690;12.362;2022-12-29T15:32:56;12.10;26.50
6672;DHT22;3372;48.690;12.362;2022-12-29T15:35:36;12.00;27.00
6672;DHT22;3372;48.690;12.362;2022-12-29T15:38:14;12.00;26.90
6672;DHT22;3372;48.690;12.362;2022-12-29T15:40:43;11.90;26.30
6672;DHT22;3372;48.690;12.362;2022-12-29T15:43:30;11.90;26.40
6672;DHT22;3372;48.690;12.362;2022-12-29T15:46:00;11.90;26.40
6672;DHT22;3372;48.690;12.362;2022-12-29T15:48:27;11.90;26.50
6672;DHT22;3372;48.690;12.362;2022-12-29T15:50:53;11.80;26.60
6672;DHT22;3372;48.690;12.362;2022-12-29T15:53:28;11.80;27.10
6672;DHT22;3372;48.690;12.362;2022-12-29T15:55:57;11.70;27.10
6672;DHT22;3372;48.690;12.362;2022-12-29T15:58:27;11.60;27.30
6672;DHT22;3372;48.690;12.362;2022-12-29T16:00:55;11.70;28.10
6672;DHT22;3372;48.690;12.362;2022-12-29T16:03:23;11.60;27.80
6672;DHT22;3372;48.690;12.362;2022-12-29T16:05:53;11.60;28.20
6672;DHT22;3372;48.690;12.362;2022-12-29T16:08:34;11.60;28.30
6672;DHT22;3372;48.690;12.362;2022-12-29T16:11:22;11.60;28.20
6672;DHT22;3372;48.690;12.362;2022-12-29T16:13:49;11.50;28.60
6672;DHT22;3372;48.690;12.362;2022-12-29T16:16:20;11.50;28.60
6672;DHT22;3372;48.690;12.362;2022-12-29T16:18:48;11.40;28.80
6672;DHT22;3372;48.690;12.362;2022-12-29T16:21:23;11.40;29.10
6672;DHT22;3372;48.690;12.362;2022-12-29T16:23:51;11.40;28.70
6672;DHT22;3372;48.690;12.362;2022-12-29T16:26:19;11.40;29.30
6672;DHT22;3372;48.690;12.362;2022-12-29T16:28:54;11.40;29.20
6672;DHT22;3372;48.690;12.362;2022-12-29T16:31:23;11.30;30.10
6672;DHT22;3372;48.690;12.362;2022-12-29T16:33:53;11.20;30.30
6672;DHT22;3372;48.690;12.362;2022-12-29T16:36:28;11.10;30.80
6672;DHT22;3372;48.690;12.362;2022-12-29T16:39:31;11.10;30.50
6672;DHT22;3372;48.690;12.362;2022-12-29T16:41:57;11.00;31.00
6672;DHT22;3372;48.690;12.362;2022-12-29T16:44:29;11.00;30.90
6672;DHT22;3372;48.690;12.362;2022-12-29T16:49:20;10.80;31.60
6672;DHT22;3372;48.690;12.362;2022-12-29T16:51:46;10.70;31.90
6672;DHT22;3372;48.690;12.362;2022-12-29T16:54:23;10.60;32.50
6672;DHT22;3372;48.690;12.362;2022-12-29T16:56:50;10.60;32.50
6672;DHT22;3372;48.690;12.362;2022-12-29T16:59:28;10.60;32.00
6672;DHT22;3372;48.690;12.362;2022-12-29T17:01:57;10.60;32.10
6672;DHT22;3372;48.690;12.362;2022-12-29T17:04:23;10.60;33.10
6672;DHT22;3372;48.690;12.362;2022-12-29T17:06:49;10.50;32.50
6672;DHT22;3372;48.690;12.362;2022-12-29T17:09:18;10.50;32.30
6672;DHT22;3372;48.690;12.362;2022-12-29T17:11:47;10.50;32.30
6672;DHT22;3372;48.690;12.362;2022-12-29T17:14:44;10.60;32.30
6672;DHT22;3372;48.690;12.362;2022-12-29T17:17:40;10.60;32.40
6672;DHT22;3372;48.690;12.362;2022-12-29T17:20:25;10.60;32.30
6672;DHT22;3372;48.690;12.362;2022-12-29T17:22:52;10.70;32.10
6672;DHT22;3372;48.690;12.362;2022-12-29T17:25:36;10.70;31.80
6672;DHT22;3372;48.690;12.362;2022-12-29T17:28:22;10.80;31.90
6672;DHT22;3372;48.690;12.362;2022-12-29T17:30:49;10.90;31.60
6672;DHT22;3372;48.690;12.362;2022-12-29T17:33:18;11.00;31.40
6672;DHT22;3372;48.690;12.362;2022-12-29T17:35:44;11.00;31.30
6672;DHT22;3372;48.690;12.362;2022-12-29T17:40:49;11.00;31.60
6672;DHT22;3372;48.690;12.362;2022-12-29T17:43:15;11.10;31.80
6672;DHT22;3372;48.690;12.362;2022-12-29T17:45:42;11.10;30.90
6672;DHT22;3372;48.690;12.362;2022-12-29T17:48:12;11.20;31.40
6672;DHT22;3372;48.690;12.362;2022-12-29T17:50:37;11.20;31.90
6672;DHT22;3372;48.690;12.362;2022-12-29T17:53:05;11.20;32.10
6672;DHT22;3372;48.690;12.362;2022-12-29T17:55:31;11.30;31.20
6672;DHT22;3372;48.690;12.362;2022-12-29T17:57:57;11.30;31.10
6672;DHT22;3372;48.690;12.362;2022-12-29T18:00:28;11.30;31.60
6672;DHT22;3372;48.690;12.362;2022-12-29T18:02:55;11.30;31.10
6672;DHT22;3372;48.690;12.362;2022-12-29T18:05:27;11.40;30.90
6672;DHT22;3372;48.690;12.362;2022-12-29T18:07:54;11.40;31.40
6672;DHT22;3372;48.690;12.362;2022-12-29T18:10:21;11.40;30.80
6672;DHT22;3372;48.690;12.362;2022-12-29T18:12:49;11.40;31.20
6672;DHT22;3372;48.690;12.362;2022-12-29T18:15:25;11.50;31.10
6672;DHT22;3372;48.690;12.362;2022-12-29T18:18:02;11.40;31.30
6672;DHT22;3372;48.690;12.362;2022-12-29T18:20:30;11.40;31.80
6672;DHT22;3372;48.690;12.362;2022-12-29T18:22:56;11.40;31.20
6672;DHT22;3372;48.690;12.362;2022-12-29T18:25:29;11.40;31.40
6672;DHT22;3372;48.690;12.362;2022-12-29T18:27:58;11.40;31.10
6672;DHT22;3372;48.690;12.362;2022-12-29T18:30:23;11.40;31.40
6672;DHT22;3372;48.690;12.362;2022-12-29T18:32:49;11.40;31.10
6672;DHT22;3372;48.690;12.362;2022-12-29T18:35:40;11.40;31.90